sensor_id;sensor_type;location;lat;lon;timestamp;temperature;humidity
70708;SHT30;58277;47.316;18.908;2023-01-29T00:01:33;1.66;82.08
70708;SHT30;58277;47.316;18.908;2023-01-29T00:03:56;1.55;82.43
70708;SHT30;58277;47.316;18.908;2023-01-29T00:06:19;1.54;82.26
70708;SHT30;58277;47.316;18.908;2023-01-29T00:08:42;1.55;82.84
70708;SHT30;58277;47.316;18.908;2023-01-29T00:11:06;1.54;82.68
70708;SHT30;58277;47.316;18.908;2023-01-29T00:13:30;1.58;82.61
70708;SHT30;58277;47.316;18.908;2023-01-29T00:15:54;1.61;82.86
70708;SHT30;58277;47.316;18.908;2023-01-29T00:18:17;1.69;81.91
70708;SHT30;58277;47.316;18.908;2023-01-29T00:20:42;1.72;82.14
70708;SHT30;58277;47.316;18.908;2023-01-29T00:23:05;1.73;81.87
70708;SHT30;58277;47.316;18.908;2023-01-29T00:25:27;1.86;81.55
70708;SHT30;58277;47.316;18.908;2023-01-29T00:27:50;1.81;81.47
70708;SHT30;58277;47.316;18.908;2023-01-29T00:30:13;1.78;81.46
70708;SHT30;58277;47.316;18.908;2023-01-29T00:32:41;1.76;81.50
70708;SHT30;58277;47.316;18.908;2023-01-29T00:35:04;1.83;81.30
70708;SHT30;58277;47.316;18.908;2023-01-29T00:37:27;1.83;81.63
70708;SHT30;58277;47.316;18.908;2023-01-29T00:39:50;1.76;81.19
70708;SHT30;58277;47.316;18.908;2023-01-29T00:42:13;1.68;81.45
70708;SHT30;58277;47.316;18.908;2023-01-29T00:44:54;1.76;81.33
70708;SHT30;58277;47.316;18.908;2023-01-29T00:47:19;1.81;81.26
70708;SHT30;58277;47.316;18.908;2023-01-29T00:49:57;1.83;81.47
70708;SHT30;58277;47.316;18.908;2023-01-29T00:52:22;1.76;81.30
70708;SHT30;58277;47.316;18.908;2023-01-29T00:54:47;1.73;81.35
70708;SHT30;58277;47.316;18.908;2023-01-29T00:57:10;1.73;80.90
70708;SHT30;58277;47.316;18.908;2023-01-29T00:59:33;1.76;81.50
70708;SHT30;58277;47.316;18.908;2023-01-29T01:01:55;1.71;81.40
70708;SHT30;58277;47.316;18.908;2023-01-29T01:04:37;1.68;81.75
70708;SHT30;58277;47.316;18.908;2023-01-29T01:06:59;1.65;81.44
70708;SHT30;58277;47.316;18.908;2023-01-29T01:09:22;1.69;81.63
70708;SHT30;58277;47.316;18.908;2023-01-29T01:12:04;1.59;81.44
70708;SHT30;58277;47.316;18.908;2023-01-29T01:14:27;1.59;81.40
70708;SHT30;58277;47.316;18.908;2023-01-29T01:16:49;1.48;81.39
70708;SHT30;58277;47.316;18.908;2023-01-29T01:19:13;1.43;81.78
70708;SHT30;58277;47.316;18.908;2023-01-29T01:21:37;1.40;81.83
70708;SHT30;58277;47.316;18.908;2023-01-29T01:23:59;1.38;81.52
70708;SHT30;58277;47.316;18.908;2023-01-29T01:26:22;1.37;82.09
70708;SHT30;58277;47.316;18.908;2023-01-29T01:28:45;1.28;82.23
70708;SHT30;58277;47.316;18.908;2023-01-29T01:31:11;1.23;82.52
70708;SHT30;58277;47.316;18.908;2023-01-29T01:33:35;1.17;82.73
70708;SHT30;58277;47.316;18.908;2023-01-29T01:36:00;1.03;83.05
70708;SHT30;58277;47.316;18.908;2023-01-29T01:38:23;1.13;82.74
70708;SHT30;58277;47.316;18.908;2023-01-29T01:40:46;1.12;82.57
70708;SHT30;58277;47.316;18.908;2023-01-29T01:43:09;1.27;82.60
70708;SHT30;58277;47.316;18.908;2023-01-29T01:45:33;1.26;81.79
70708;SHT30;58277;47.316;18.908;2023-01-29T01:51:01;1.26;82.02
70708;SHT30;58277;47.316;18.908;2023-01-29T01:56:23;1.26;82.02
70708;SHT30;58277;47.316;18.908;2023-01-29T01:58:51;1.28;81.74
70708;SHT30;58277;47.316;18.908;2023-01-29T02:01:16;1.37;81.64
70708;SHT30;58277;47.316;18.908;2023-01-29T02:03:58;1.22;82.30
70708;SHT30;58277;47.316;18.908;2023-01-29T02:06:42;1.22;82.35
70708;SHT30;58277;47.316;18.908;2023-01-29T02:09:31;1.23;82.15
70708;SHT30;58277;47.316;18.908;2023-01-29T02:12:01;1.20;82.38
70708;SHT30;58277;47.316;18.908;2023-01-29T02:14:24;1.30;82.32
70708;SHT30;58277;47.316;18.908;2023-01-29T02:16:47;1.28;82.56
70708;SHT30;58277;47.316;18.908;2023-01-29T02:19:26;1.33;82.20
70708;SHT30;58277;47.316;18.908;2023-01-29T02:27:45;1.26;82.17
70708;SHT30;58277;47.316;18.908;2023-01-29T02:30:27;1.20;82.37
70708;SHT30;58277;47.316;18.908;2023-01-29T02:36:13;1.07;83.50
70708;SHT30;58277;47.316;18.908;2023-01-29T02:39:19;0.99;83.30
70708;SHT30;58277;47.316;18.908;2023-01-29T02:44:22;0.90;83.31
70708;SHT30;58277;47.316;18.908;2023-01-29T02:46:58;0.89;83.27
70708;SHT30;58277;47.316;18.908;2023-01-29T02:49:37;0.78;83.97
70708;SHT30;58277;47.316;18.908;2023-01-29T02:52:15;0.79;83.72
70708;SHT30;58277;47.316;18.908;2023-01-29T02:59:44;0.79;84.03
70708;SHT30;58277;47.316;18.908;2023-01-29T03:02:19;0.83;83.70
70708;SHT30;58277;47.316;18.908;2023-01-29T03:04:50;0.89;83.48
70708;SHT30;58277;47.316;18.908;2023-01-29T03:07:33;0.87;83.61
70708;SHT30;58277;47.316;18.908;2023-01-29T03:10:31;0.93;83.08
70708;SHT30;58277;47.316;18.908;2023-01-29T03:13:02;1.04;82.39
70708;SHT30;58277;47.316;18.908;2023-01-29T03:15:34;1.16;82.16
70708;SHT30;58277;47.316;18.908;2023-01-29T03:18:17;1.23;81.71
70708;SHT30;58277;47.316;18.908;2023-01-29T03:20:48;1.16;81.62
70708;SHT30;58277;47.316;18.908;2023-01-29T03:23:21;1.14;81.39
70708;SHT30;58277;47.316;18.908;2023-01-29T03:25:51;1.28;81.12
70708;SHT30;58277;47.316;18.908;2023-01-29T03:28:33;1.26;81.21
70708;SHT30;58277;47.316;18.908;2023-01-29T03:31:16;1.24;81.36
70708;SHT30;58277;47.316;18.908;2023-01-29T03:36:39;1.41;80.90
70708;SHT30;58277;47.316;18.908;2023-01-29T03:39:08;1.45;80.40
70708;SHT30;58277;47.316;18.908;2023-01-29T03:44:19;1.48;79.80
70708;SHT30;58277;47.316;18.908;2023-01-29T03:47:07;1.50;79.48
70708;SHT30;58277;47.316;18.908;2023-01-29T03:55:15;1.65;79.27
70708;SHT30;58277;47.316;18.908;2023-01-29T03:57:44;1.64;79.23
70708;SHT30;58277;47.316;18.908;2023-01-29T04:00:18;1.66;79.42
70708;SHT30;58277;47.316;18.908;2023-01-29T04:03:01;1.69;78.97
70708;SHT30;58277;47.316;18.908;2023-01-29T04:05:30;1.71;79.11
70708;SHT30;58277;47.316;18.908;2023-01-29T04:08:10;1.69;78.87
70708;SHT30;58277;47.316;18.908;2023-01-29T04:10:38;1.76;78.99
70708;SHT30;58277;47.316;18.908;2023-01-29T04:13:05;1.82;78.68
70708;SHT30;58277;47.316;18.908;2023-01-29T04:15:33;1.76;78.68
70708;SHT30;58277;47.316;18.908;2023-01-29T04:17:57;1.66;78.38
70708;SHT30;58277;47.316;18.908;2023-01-29T04:20:44;1.66;79.22
70708;SHT30;58277;47.316;18.908;2023-01-29T04:23:19;1.62;78.86
70708;SHT30;58277;47.316;18.908;2023-01-29T04:25:45;1.68;78.95
70708;SHT30;58277;47.316;18.908;2023-01-29T04:28:20;1.86;77.95
70708;SHT30;58277;47.316;18.908;2023-01-29T04:30:56;1.83;78.19
70708;SHT30;58277;47.316;18.908;2023-01-29T04:41:25;1.91;77.25
70708;SHT30;58277;47.316;18.908;2023-01-29T04:44:46;1.86;77.31
70708;SHT30;58277;47.316;18.908;2023-01-29T04:52:11;1.73;77.54
70708;SHT30;58277;47.316;18.908;2023-01-29T05:00:10;1.92;76.53
70708;SHT30;58277;47.316;18.908;2023-01-29T05:02:40;1.82;76.64
70708;SHT30;58277;47.316;18.908;2023-01-29T05:05:04;1.82;76.83
70708;SHT30;58277;47.316;18.908;2023-01-29T05:07:29;1.81;76.80
70708;SHT30;58277;47.316;18.908;2023-01-29T05:09:53;1.87;77.22
70708;SHT30;58277;47.316;18.908;2023-01-29T05:12:16;1.85;77.17
70708;SHT30;58277;47.316;18.908;2023-01-29T05:14:42;1.83;77.30
70708;SHT30;58277;47.316;18.908;2023-01-29T05:17:11;1.81;76.76
70708;SHT30;58277;47.316;18.908;2023-01-29T05:19:35;1.93;76.62
70708;SHT30;58277;47.316;18.908;2023-01-29T05:22:15;1.87;77.04
70708;SHT30;58277;47.316;18.908;2023-01-29T05:24:38;1.87;76.90
70708;SHT30;58277;47.316;18.908;2023-01-29T05:27:01;1.87;76.62
70708;SHT30;58277;47.316;18.908;2023-01-29T05:29:46;1.96;76.30
70708;SHT30;58277;47.316;18.908;2023-01-29T05:32:08;1.96;76.80
70708;SHT30;58277;47.316;18.908;2023-01-29T05:34:31;1.92;76.87
70708;SHT30;58277;47.316;18.908;2023-01-29T05:36:54;1.87;76.70
70708;SHT30;58277;47.316;18.908;2023-01-29T05:39:16;1.83;76.91
70708;SHT30;58277;47.316;18.908;2023-01-29T05:41:39;1.99;77.11
70708;SHT30;58277;47.316;18.908;2023-01-29T05:44:02;1.98;76.71
70708;SHT30;58277;47.316;18.908;2023-01-29T05:46:25;1.93;76.74
70708;SHT30;58277;47.316;18.908;2023-01-29T05:48:47;2.00;77.22
70708;SHT30;58277;47.316;18.908;2023-01-29T05:51:10;1.92;77.25
70708;SHT30;58277;47.316;18.908;2023-01-29T05:53:33;1.96;76.83
70708;SHT30;58277;47.316;18.908;2023-01-29T05:55:55;1.98;76.99
70708;SHT30;58277;47.316;18.908;2023-01-29T05:58:21;1.93;77.05
70708;SHT30;58277;47.316;18.908;2023-01-29T06:00:44;1.89;77.22
70708;SHT30;58277;47.316;18.908;2023-01-29T06:03:07;1.96;77.39
70708;SHT30;58277;47.316;18.908;2023-01-29T06:05:30;2.07;77.23
70708;SHT30;58277;47.316;18.908;2023-01-29T06:07:52;2.05;77.27
70708;SHT30;58277;47.316;18.908;2023-01-29T06:10:17;2.02;77.59
70708;SHT30;58277;47.316;18.908;2023-01-29T06:12:41;2.12;77.37
70708;SHT30;58277;47.316;18.908;2023-01-29T06:15:04;2.06;77.27
70708;SHT30;58277;47.316;18.908;2023-01-29T06:17:27;2.03;77.00
70708;SHT30;58277;47.316;18.908;2023-01-29T06:19:50;1.96;77.29
70708;SHT30;58277;47.316;18.908;2023-01-29T06:22:13;1.75;77.64
70708;SHT30;58277;47.316;18.908;2023-01-29T06:24:36;1.89;77.80
70708;SHT30;58277;47.316;18.908;2023-01-29T06:26:58;1.99;77.92
70708;SHT30;58277;47.316;18.908;2023-01-29T06:29:21;2.06;77.54
70708;SHT30;58277;47.316;18.908;2023-01-29T06:31:44;2.03;77.66
70708;SHT30;58277;47.316;18.908;2023-01-29T06:34:07;1.99;78.10
70708;SHT30;58277;47.316;18.908;2023-01-29T06:36:30;1.96;77.99
70708;SHT30;58277;47.316;18.908;2023-01-29T06:38:52;1.95;78.15
70708;SHT30;58277;47.316;18.908;2023-01-29T06:41:17;1.95;78.54
70708;SHT30;58277;47.316;18.908;2023-01-29T06:43:43;1.89;78.85
70708;SHT30;58277;47.316;18.908;2023-01-29T06:46:07;1.95;78.42
70708;SHT30;58277;47.316;18.908;2023-01-29T06:48:29;1.89;78.32
70708;SHT30;58277;47.316;18.908;2023-01-29T06:50:52;1.82;78.98
70708;SHT30;58277;47.316;18.908;2023-01-29T06:53:17;1.79;78.92
70708;SHT30;58277;47.316;18.908;2023-01-29T06:55:40;1.87;78.63
70708;SHT30;58277;47.316;18.908;2023-01-29T06:58:10;1.95;78.41
70708;SHT30;58277;47.316;18.908;2023-01-29T07:00:33;1.92;77.97
70708;SHT30;58277;47.316;18.908;2023-01-29T07:02:56;1.85;78.09
70708;SHT30;58277;47.316;18.908;2023-01-29T07:05:19;1.91;78.29
70708;SHT30;58277;47.316;18.908;2023-01-29T07:07:42;1.99;78.08
70708;SHT30;58277;47.316;18.908;2023-01-29T07:10:05;2.06;77.29
70708;SHT30;58277;47.316;18.908;2023-01-29T07:12:29;2.05;76.94
70708;SHT30;58277;47.316;18.908;2023-01-29T07:14:51;1.91;76.63
70708;SHT30;58277;47.316;18.908;2023-01-29T07:17:14;1.93;76.83
70708;SHT30;58277;47.316;18.908;2023-01-29T07:19:37;1.89;77.19
70708;SHT30;58277;47.316;18.908;2023-01-29T07:21:59;1.95;76.53
70708;SHT30;58277;47.316;18.908;2023-01-29T07:24:24;2.07;76.30
70708;SHT30;58277;47.316;18.908;2023-01-29T07:26:47;2.02;76.47
70708;SHT30;58277;47.316;18.908;2023-01-29T07:29:10;2.03;76.37
70708;SHT30;58277;47.316;18.908;2023-01-29T07:31:33;2.14;75.92
70708;SHT30;58277;47.316;18.908;2023-01-29T07:33:56;2.23;75.74
70708;SHT30;58277;47.316;18.908;2023-01-29T07:36:18;2.24;75.45
70708;SHT30;58277;47.316;18.908;2023-01-29T07:38:41;2.16;75.10
70708;SHT30;58277;47.316;18.908;2023-01-29T07:41:04;2.26;75.10
70708;SHT30;58277;47.316;18.908;2023-01-29T07:43:27;2.34;75.61
70708;SHT30;58277;47.316;18.908;2023-01-29T07:45:49;2.27;74.15
70708;SHT30;58277;47.316;18.908;2023-01-29T07:48:13;2.27;74.20
70708;SHT30;58277;47.316;18.908;2023-01-29T07:50:36;2.29;74.37
70708;SHT30;58277;47.316;18.908;2023-01-29T07:52:59;2.26;74.52
70708;SHT30;58277;47.316;18.908;2023-01-29T07:55:22;2.23;74.08
70708;SHT30;58277;47.316;18.908;2023-01-29T07:57:45;2.31;73.98
70708;SHT30;58277;47.316;18.908;2023-01-29T08:00:09;2.41;73.77
70708;SHT30;58277;47.316;18.908;2023-01-29T08:02:37;2.44;73.29
70708;SHT30;58277;47.316;18.908;2023-01-29T08:05:00;2.44;73.58
70708;SHT30;58277;47.316;18.908;2023-01-29T08:07:22;2.42;72.88
70708;SHT30;58277;47.316;18.908;2023-01-29T08:09:46;2.51;73.55
70708;SHT30;58277;47.316;18.908;2023-01-29T08:12:10;2.42;73.25
70708;SHT30;58277;47.316;18.908;2023-01-29T08:14:32;2.55;72.81
70708;SHT30;58277;47.316;18.908;2023-01-29T08:16:55;2.60;73.15
70708;SHT30;58277;47.316;18.908;2023-01-29T08:19:18;2.68;71.99
70708;SHT30;58277;47.316;18.908;2023-01-29T08:21:40;2.66;72.31
70708;SHT30;58277;47.316;18.908;2023-01-29T08:24:03;2.65;72.08
70708;SHT30;58277;47.316;18.908;2023-01-29T08:26:26;2.68;72.22
70708;SHT30;58277;47.316;18.908;2023-01-29T08:28:49;2.60;72.54
70708;SHT30;58277;47.316;18.908;2023-01-29T08:31:15;2.62;72.40
70708;SHT30;58277;47.316;18.908;2023-01-29T08:33:39;2.57;72.58
70708;SHT30;58277;47.316;18.908;2023-01-29T08:36:01;2.68;72.29
70708;SHT30;58277;47.316;18.908;2023-01-29T08:38:24;2.77;71.95
70708;SHT30;58277;47.316;18.908;2023-01-29T08:40:47;2.69;72.00
70708;SHT30;58277;47.316;18.908;2023-01-29T08:43:12;2.60;71.85
70708;SHT30;58277;47.316;18.908;2023-01-29T08:45:40;2.64;73.10
70708;SHT30;58277;47.316;18.908;2023-01-29T08:48:03;2.82;71.50
70708;SHT30;58277;47.316;18.908;2023-01-29T08:50:27;2.93;71.99
70708;SHT30;58277;47.316;18.908;2023-01-29T08:52:56;2.81;71.41
70708;SHT30;58277;47.316;18.908;2023-01-29T08:55:20;2.79;71.78
70708;SHT30;58277;47.316;18.908;2023-01-29T08:57:42;2.72;71.51
70708;SHT30;58277;47.316;18.908;2023-01-29T09:00:07;2.72;72.03
70708;SHT30;58277;47.316;18.908;2023-01-29T09:02:31;2.68;72.18
70708;SHT30;58277;47.316;18.908;2023-01-29T09:04:54;2.74;71.72
70708;SHT30;58277;47.316;18.908;2023-01-29T09:07:17;2.75;71.25
70708;SHT30;58277;47.316;18.908;2023-01-29T09:09:41;2.74;70.93
70708;SHT30;58277;47.316;18.908;2023-01-29T09:12:04;2.68;71.00
70708;SHT30;58277;47.316;18.908;2023-01-29T09:14:28;2.64;71.32
70708;SHT30;58277;47.316;18.908;2023-01-29T09:16:51;2.68;70.92
70708;SHT30;58277;47.316;18.908;2023-01-29T09:19:13;2.68;70.70
70708;SHT30;58277;47.316;18.908;2023-01-29T09:21:36;2.72;70.83
70708;SHT30;58277;47.316;18.908;2023-01-29T09:23:59;2.81;71.26
70708;SHT30;58277;47.316;18.908;2023-01-29T09:26:22;2.99;70.00
70708;SHT30;58277;47.316;18.908;2023-01-29T09:28:45;2.78;68.70
70708;SHT30;58277;47.316;18.908;2023-01-29T09:31:08;2.89;69.73
70708;SHT30;58277;47.316;18.908;2023-01-29T09:33:31;2.95;68.53
70708;SHT30;58277;47.316;18.908;2023-01-29T09:35:54;2.81;68.97
70708;SHT30;58277;47.316;18.908;2023-01-29T09:38:17;2.82;68.35
70708;SHT30;58277;47.316;18.908;2023-01-29T09:43:22;2.64;68.48
70708;SHT30;58277;47.316;18.908;2023-01-29T09:48:35;2.58;68.84
70708;SHT30;58277;47.316;18.908;2023-01-29T09:51:02;2.44;68.66
70708;SHT30;58277;47.316;18.908;2023-01-29T09:53:30;2.42;69.01
70708;SHT30;58277;47.316;18.908;2023-01-29T09:56:10;2.50;69.10
70708;SHT30;58277;47.316;18.908;2023-01-29T09:58:36;2.66;68.74
70708;SHT30;58277;47.316;18.908;2023-01-29T10:01:21;2.58;70.08
70708;SHT30;58277;47.316;18.908;2023-01-29T10:23:26;2.93;67.92
70708;SHT30;58277;47.316;18.908;2023-01-29T10:25:51;3.03;67.14
70708;SHT30;58277;47.316;18.908;2023-01-29T10:28:17;2.92;67.01
70708;SHT30;58277;47.316;18.908;2023-01-29T10:30:48;2.78;67.36
70708;SHT30;58277;47.316;18.908;2023-01-29T10:33:22;2.79;67.46
70708;SHT30;58277;47.316;18.908;2023-01-29T10:35:49;2.72;67.59
70708;SHT30;58277;47.316;18.908;2023-01-29T10:38:34;2.66;67.45
70708;SHT30;58277;47.316;18.908;2023-01-29T11:02:35;2.65;66.93
70708;SHT30;58277;47.316;18.908;2023-01-29T11:04:58;2.75;66.40
70708;SHT30;58277;47.316;18.908;2023-01-29T11:07:21;2.77;65.21
70708;SHT30;58277;47.316;18.908;2023-01-29T11:09:59;2.78;65.63
70708;SHT30;58277;47.316;18.908;2023-01-29T11:12:29;2.75;66.53
70708;SHT30;58277;47.316;18.908;2023-01-29T11:15:02;2.86;65.15
70708;SHT30;58277;47.316;18.908;2023-01-29T11:17:26;2.91;64.41
70708;SHT30;58277;47.316;18.908;2023-01-29T11:19:51;2.77;64.33
70708;SHT30;58277;47.316;18.908;2023-01-29T11:22:19;2.68;63.92
70708;SHT30;58277;47.316;18.908;2023-01-29T11:24:42;2.62;65.26
70708;SHT30;58277;47.316;18.908;2023-01-29T11:27:23;2.72;64.88
70708;SHT30;58277;47.316;18.908;2023-01-29T11:29:48;3.06;64.56
70708;SHT30;58277;47.316;18.908;2023-01-29T11:32:14;3.36;64.84
70708;SHT30;58277;47.316;18.908;2023-01-29T11:37:35;3.53;61.67
70708;SHT30;58277;47.316;18.908;2023-01-29T11:40:00;3.58;61.00
70708;SHT30;58277;47.316;18.908;2023-01-29T11:42:23;3.51;61.17
70708;SHT30;58277;47.316;18.908;2023-01-29T11:44:46;3.55;59.40
70708;SHT30;58277;47.316;18.908;2023-01-29T11:49:39;3.31;59.80
70708;SHT30;58277;47.316;18.908;2023-01-29T11:52:09;3.47;59.71
70708;SHT30;58277;47.316;18.908;2023-01-29T11:54:44;3.26;59.76
70708;SHT30;58277;47.316;18.908;2023-01-29T11:57:33;3.38;59.58
70708;SHT30;58277;47.316;18.908;2023-01-29T12:00:00;3.36;60.17
70708;SHT30;58277;47.316;18.908;2023-01-29T12:02:36;3.38;60.70
70708;SHT30;58277;47.316;18.908;2023-01-29T12:05:17;3.28;60.01
70708;SHT30;58277;47.316;18.908;2023-01-29T12:07:42;3.40;59.90
70708;SHT30;58277;47.316;18.908;2023-01-29T12:13:03;3.33;60.49
70708;SHT30;58277;47.316;18.908;2023-01-29T12:15:26;3.40;59.55
70708;SHT30;58277;47.316;18.908;2023-01-29T12:20:39;3.13;59.25
70708;SHT30;58277;47.316;18.908;2023-01-29T12:23:10;3.05;59.21
70708;SHT30;58277;47.316;18.908;2023-01-29T12:31:09;2.85;59.99
70708;SHT30;58277;47.316;18.908;2023-01-29T12:33:48;2.89;60.45
70708;SHT30;58277;47.316;18.908;2023-01-29T12:36:37;3.02;61.00
70708;SHT30;58277;47.316;18.908;2023-01-29T12:39:01;3.06;61.12
70708;SHT30;58277;47.316;18.908;2023-01-29T12:41:35;2.75;60.14
70708;SHT30;58277;47.316;18.908;2023-01-29T12:44:19;2.37;61.71
70708;SHT30;58277;47.316;18.908;2023-01-29T12:46:46;2.19;62.97
70708;SHT30;58277;47.316;18.908;2023-01-29T12:49:16;2.16;63.43
70708;SHT30;58277;47.316;18.908;2023-01-29T12:51:50;2.10;64.28
70708;SHT30;58277;47.316;18.908;2023-01-29T12:54:20;2.16;64.16
70708;SHT30;58277;47.316;18.908;2023-01-29T12:56:47;2.09;63.88
70708;SHT30;58277;47.316;18.908;2023-01-29T12:59:35;1.95;63.90
70708;SHT30;58277;47.316;18.908;2023-01-29T13:02:11;2.05;63.06
70708;SHT30;58277;47.316;18.908;2023-01-29T13:04:41;1.95;63.23
70708;SHT30;58277;47.316;18.908;2023-01-29T13:07:12;2.10;62.96
70708;SHT30;58277;47.316;18.908;2023-01-29T13:09:37;2.10;63.18
70708;SHT30;58277;47.316;18.908;2023-01-29T13:12:06;2.23;62.82
70708;SHT30;58277;47.316;18.908;2023-01-29T13:14:56;2.37;62.70
70708;SHT30;58277;47.316;18.908;2023-01-29T13:17:25;2.52;61.25
70708;SHT30;58277;47.316;18.908;2023-01-29T13:19:57;2.65;60.85
70708;SHT30;58277;47.316;18.908;2023-01-29T13:22:24;2.96;60.95
70708;SHT30;58277;47.316;18.908;2023-01-29T13:24:47;3.12;60.32
70708;SHT30;58277;47.316;18.908;2023-01-29T13:27:27;3.03;59.42
70708;SHT30;58277;47.316;18.908;2023-01-29T13:29:51;2.96;59.34
70708;SHT30;58277;47.316;18.908;2023-01-29T13:32:21;2.74;60.05
70708;SHT30;58277;47.316;18.908;2023-01-29T13:34:46;2.66;60.16
70708;SHT30;58277;47.316;18.908;2023-01-29T13:37:23;2.77;60.58
70708;SHT30;58277;47.316;18.908;2023-01-29T13:39:51;2.65;61.19
70708;SHT30;58277;47.316;18.908;2023-01-29T13:45:01;2.66;60.47
70708;SHT30;58277;47.316;18.908;2023-01-29T13:47:33;2.79;60.07
70708;SHT30;58277;47.316;18.908;2023-01-29T13:50:02;2.75;60.00
70708;SHT30;58277;47.316;18.908;2023-01-29T13:52:36;2.60;60.59
70708;SHT30;58277;47.316;18.908;2023-01-29T13:55:06;2.84;60.73
70708;SHT30;58277;47.316;18.908;2023-01-29T13:57:44;2.92;60.87
70708;SHT30;58277;47.316;18.908;2023-01-29T14:02:44;2.66;60.76
70708;SHT30;58277;47.316;18.908;2023-01-29T14:07:51;2.38;61.76
70708;SHT30;58277;47.316;18.908;2023-01-29T14:10:21;2.37;62.01
70708;SHT30;58277;47.316;18.908;2023-01-29T14:12:45;2.23;62.89
70708;SHT30;58277;47.316;18.908;2023-01-29T14:18:48;1.86;63.74
70708;SHT30;58277;47.316;18.908;2023-01-29T14:26:05;1.48;64.76
70708;SHT30;58277;47.316;18.908;2023-01-29T14:31:35;1.24;65.97
70708;SHT30;58277;47.316;18.908;2023-01-29T14:34:02;1.16;66.42
70708;SHT30;58277;47.316;18.908;2023-01-29T14:36:26;1.06;67.77
70708;SHT30;58277;47.316;18.908;2023-01-29T14:38:50;0.92;67.49
70708;SHT30;58277;47.316;18.908;2023-01-29T14:41:30;0.92;67.01
70708;SHT30;58277;47.316;18.908;2023-01-29T14:46:54;0.80;66.74
70708;SHT30;58277;47.316;18.908;2023-01-29T14:52:12;0.82;67.89
70708;SHT30;58277;47.316;18.908;2023-01-29T14:54:38;0.80;68.67
70708;SHT30;58277;47.316;18.908;2023-01-29T14:57:03;0.73;68.66
70708;SHT30;58277;47.316;18.908;2023-01-29T15:02:00;0.72;69.08
70708;SHT30;58277;47.316;18.908;2023-01-29T15:04:27;0.78;68.70
70708;SHT30;58277;47.316;18.908;2023-01-29T15:06:58;0.82;68.21
70708;SHT30;58277;47.316;18.908;2023-01-29T15:14:34;0.65;69.76
70708;SHT30;58277;47.316;18.908;2023-01-29T15:17:29;0.64;68.91
70708;SHT30;58277;47.316;18.908;2023-01-29T15:19:54;0.58;69.43
70708;SHT30;58277;47.316;18.908;2023-01-29T15:22:20;0.57;68.77
70708;SHT30;58277;47.316;18.908;2023-01-29T15:24:45;0.54;69.85
70708;SHT30;58277;47.316;18.908;2023-01-29T15:27:18;0.36;70.15
70708;SHT30;58277;47.316;18.908;2023-01-29T15:29:46;0.24;70.64
70708;SHT30;58277;47.316;18.908;2023-01-29T15:32:17;0.11;71.64
70708;SHT30;58277;47.316;18.908;2023-01-29T15:34:48;0.10;71.99
70708;SHT30;58277;47.316;18.908;2023-01-29T15:37:31;0.06;70.97
70708;SHT30;58277;47.316;18.908;2023-01-29T15:39:55;0.11;71.63
70708;SHT30;58277;47.316;18.908;2023-01-29T15:42:18;0.10;71.56
70708;SHT30;58277;47.316;18.908;2023-01-29T15:44:47;-0.03;72.09
70708;SHT30;58277;47.316;18.908;2023-01-29T15:47:09;-0.01;72.59
70708;SHT30;58277;47.316;18.908;2023-01-29T15:49:34;-0.10;72.92
70708;SHT30;58277;47.316;18.908;2023-01-29T15:52:17;-0.18;73.51
70708;SHT30;58277;47.316;18.908;2023-01-29T15:54:42;-0.32;73.21
70708;SHT30;58277;47.316;18.908;2023-01-29T15:57:05;-0.37;73.67
70708;SHT30;58277;47.316;18.908;2023-01-29T15:59:41;-0.38;73.21
70708;SHT30;58277;47.316;18.908;2023-01-29T16:04:46;-0.34;73.50
70708;SHT30;58277;47.316;18.908;2023-01-29T16:07:09;-0.38;73.99
70708;SHT30;58277;47.316;18.908;2023-01-29T16:09:32;-0.38;74.66
70708;SHT30;58277;47.316;18.908;2023-01-29T16:11:57;-0.52;74.83
70708;SHT30;58277;47.316;18.908;2023-01-29T16:14:22;-0.48;74.24
70708;SHT30;58277;47.316;18.908;2023-01-29T16:16:47;-0.48;75.17
70708;SHT30;58277;47.316;18.908;2023-01-29T16:19:24;-0.51;74.28
70708;SHT30;58277;47.316;18.908;2023-01-29T16:21:59;-0.49;74.40
70708;SHT30;58277;47.316;18.908;2023-01-29T16:24:24;-0.59;74.69
70708;SHT30;58277;47.316;18.908;2023-01-29T16:26:49;-0.52;75.02
70708;SHT30;58277;47.316;18.908;2023-01-29T16:29:19;-0.54;74.59
70708;SHT30;58277;47.316;18.908;2023-01-29T16:31:44;-0.49;74.95
70708;SHT30;58277;47.316;18.908;2023-01-29T16:34:46;-0.48;74.74
70708;SHT30;58277;47.316;18.908;2023-01-29T16:37:36;-0.46;75.29
70708;SHT30;58277;47.316;18.908;2023-01-29T16:40:12;-0.46;75.66
70708;SHT30;58277;47.316;18.908;2023-01-29T16:42:37;-0.38;75.13
70708;SHT30;58277;47.316;18.908;2023-01-29T16:45:00;-0.38;75.14
70708;SHT30;58277;47.316;18.908;2023-01-29T16:47:32;-0.22;75.12
70708;SHT30;58277;47.316;18.908;2023-01-29T16:52:28;-0.14;75.08
70708;SHT30;58277;47.316;18.908;2023-01-29T16:54:57;-0.04;74.28
70708;SHT30;58277;47.316;18.908;2023-01-29T16:57:28;0.00;74.40
70708;SHT30;58277;47.316;18.908;2023-01-29T16:59:55;0.07;73.63
70708;SHT30;58277;47.316;18.908;2023-01-29T17:02:27;0.04;73.44
70708;SHT30;58277;47.316;18.908;2023-01-29T17:04:53;0.10;73.52
70708;SHT30;58277;47.316;18.908;2023-01-29T17:07:17;0.03;73.16
70708;SHT30;58277;47.316;18.908;2023-01-29T17:09:50;-0.11;72.28
70708;SHT30;58277;47.316;18.908;2023-01-29T17:12:18;-0.04;73.43
70708;SHT30;58277;47.316;18.908;2023-01-29T17:14:58;-0.07;73.32
70708;SHT30;58277;47.316;18.908;2023-01-29T17:17:28;-0.13;72.75
70708;SHT30;58277;47.316;18.908;2023-01-29T17:19:51;-0.03;71.95
70708;SHT30;58277;47.316;18.908;2023-01-29T17:22:15;-0.08;72.20
70708;SHT30;58277;47.316;18.908;2023-01-29T17:24:38;-0.07;72.11
70708;SHT30;58277;47.316;18.908;2023-01-29T17:27:00;-0.07;71.92
70708;SHT30;58277;47.316;18.908;2023-01-29T17:29:27;-0.14;72.30
70708;SHT30;58277;47.316;18.908;2023-01-29T17:31:51;-0.19;71.31
70708;SHT30;58277;47.316;18.908;2023-01-29T17:34:15;-0.38;72.19
70708;SHT30;58277;47.316;18.908;2023-01-29T17:36:38;-0.44;72.43
70708;SHT30;58277;47.316;18.908;2023-01-29T17:39:09;-0.51;72.15
70708;SHT30;58277;47.316;18.908;2023-01-29T17:41:33;-0.51;71.73
70708;SHT30;58277;47.316;18.908;2023-01-29T17:43:56;-0.52;71.22
70708;SHT30;58277;47.316;18.908;2023-01-29T17:46:20;-0.58;71.41
70708;SHT30;58277;47.316;18.908;2023-01-29T17:48:43;-0.58;71.42
70708;SHT30;58277;47.316;18.908;2023-01-29T17:51:12;-0.65;71.92
70708;SHT30;58277;47.316;18.908;2023-01-29T17:53:36;-0.73;72.37
70708;SHT30;58277;47.316;18.908;2023-01-29T17:56:20;-0.75;72.56
70708;SHT30;58277;47.316;18.908;2023-01-29T17:58:45;-0.80;73.64
70708;SHT30;58277;47.316;18.908;2023-01-29T18:01:08;-0.77;73.26
70708;SHT30;58277;47.316;18.908;2023-01-29T18:03:31;-0.77;73.45
70708;SHT30;58277;47.316;18.908;2023-01-29T18:05:54;-0.82;74.06
70708;SHT30;58277;47.316;18.908;2023-01-29T18:08:25;-0.86;74.42